createdAt,value
2022-09-11T00:01:24.499Z,24.45
2022-09-11T00:03:51.074Z,22.00
2022-09-11T00:06:28.905Z,22.75
2022-09-11T00:09:00.790Z,22.30
2022-09-11T00:11:33.567Z,20.02
2022-09-11T00:14:00.729Z,21.30
2022-09-11T00:16:29.756Z,23.17
2022-09-11T00:18:59.539Z,22.80
2022-09-11T00:21:27.473Z,24.33
2022-09-11T00:23:54.164Z,24.25
2022-09-11T00:26:21.555Z,28.50
2022-09-11T00:28:49.051Z,26.70
2022-09-11T00:31:17.700Z,21.80
2022-09-11T00:33:44.904Z,24.77
2022-09-11T00:36:26.452Z,26.73
2022-09-11T00:38:58.759Z,21.05
2022-09-11T00:41:28.226Z,23.58
2022-09-11T00:44:07.956Z,22.60
2022-09-11T00:46:42.449Z,25.38
2022-09-11T00:49:40.281Z,23.52
2022-09-11T00:52:18.673Z,22.25
2022-09-11T00:54:58.327Z,25.73
2022-09-11T00:57:28.013Z,22.10
2022-09-11T00:59:55.909Z,22.65
2022-09-11T01:02:27.318Z,25.20
2022-09-11T01:04:55.268Z,25.33
2022-09-11T01:07:24.625Z,24.63
2022-09-11T01:09:51.275Z,25.08
2022-09-11T01:12:27.707Z,24.05
2022-09-11T01:15:28.046Z,27.13
2022-09-11T01:18:15.764Z,24.27
2022-09-11T01:21:01.028Z,23.08
2022-09-11T01:23:31.074Z,29.17
2022-09-11T01:26:12.533Z,26.65
2022-09-11T01:28:50.471Z,24.75
2022-09-11T01:31:20.753Z,30.40
2022-09-11T01:34:00.435Z,24.00
2022-09-11T01:36:35.748Z,29.35
2022-09-11T01:39:04.084Z,28.40
2022-09-11T01:41:32.744Z,28.73
2022-09-11T01:44:26.349Z,29.45
2022-09-11T01:46:53.930Z,27.55
2022-09-11T01:49:35.269Z,28.88
2022-09-11T01:52:05.513Z,27.85
2022-09-11T01:54:36.690Z,24.98
2022-09-11T01:57:09.731Z,26.75
2022-09-11T01:59:49.786Z,30.38
2022-09-11T02:02:22.404Z,24.13
2022-09-11T02:04:52.352Z,23.90
2022-09-11T02:07:35.264Z,28.10
2022-09-11T02:10:23.886Z,28.08
2022-09-11T02:13:04.736Z,31.52
2022-09-11T02:15:38.605Z,26.15
2022-09-11T02:18:22.312Z,28.70
2022-09-11T02:20:48.858Z,23.40
2022-09-11T02:23:15.641Z,25.30
2022-09-11T02:25:42.431Z,28.50
2022-09-11T02:28:09.530Z,26.58
2022-09-11T02:30:38.212Z,29.10
2022-09-11T02:33:13.665Z,24.48
2022-09-11T02:35:45.391Z,26.65
2022-09-11T02:38:25.336Z,27.23
2022-09-11T02:41:10.000Z,23.45
2022-09-11T02:43:54.645Z,24.63
2022-09-11T02:46:39.976Z,26.55
2022-09-11T02:49:25.129Z,29.50
2022-09-11T02:52:12.886Z,26.75
2022-09-11T02:54:54.371Z,24.95
2022-09-11T02:57:25.367Z,26.95
2022-09-11T03:00:01.094Z,31.23
2022-09-11T03:02:29.636Z,29.77
2022-09-11T03:04:56.728Z,25.17
2022-09-11T03:07:25.282Z,28.35
2022-09-11T03:09:52.437Z,26.30
2022-09-11T03:12:19.094Z,30.02
2022-09-11T03:14:45.619Z,27.50
2022-09-11T03:17:13.575Z,31.27
2022-09-11T03:19:40.268Z,31.50
2022-09-11T03:22:06.824Z,35.30
2022-09-11T03:24:33.300Z,33.45
2022-09-11T03:26:59.792Z,27.50
2022-09-11T03:29:26.480Z,30.15
2022-09-11T03:31:53.009Z,32.88
2022-09-11T03:34:19.802Z,32.63
2022-09-11T03:36:47.985Z,33.92
2022-09-11T03:39:14.694Z,30.70
2022-09-11T03:41:41.274Z,31.95
2022-09-11T03:44:08.149Z,30.13
2022-09-11T03:46:35.106Z,32.80
2022-09-11T03:49:02.067Z,28.83
2022-09-11T03:51:28.538Z,32.28
2022-09-11T03:53:54.989Z,36.47
2022-09-11T03:56:21.972Z,34.40
2022-09-11T03:58:48.969Z,38.97
2022-09-11T04:01:18.813Z,32.97
2022-09-11T04:03:45.766Z,36.47
2022-09-11T04:06:12.285Z,31.95
2022-09-11T04:08:51.361Z,42.00
2022-09-11T04:11:17.852Z,40.65
2022-09-11T04:13:44.417Z,43.60
2022-09-11T04:16:14.016Z,46.17
2022-09-11T04:18:42.227Z,39.25
2022-09-11T04:21:11.054Z,40.92
2022-09-11T04:26:24.622Z,38.20
2022-09-11T04:28:51.895Z,37.28
2022-09-11T04:31:19.452Z,41.00
2022-09-11T04:33:46.415Z,47.35
2022-09-11T04:36:16.905Z,43.47
2022-09-11T04:38:44.367Z,45.75
2022-09-11T04:41:11.259Z,35.58
2022-09-11T04:43:39.634Z,35.85
2022-09-11T04:48:53.153Z,46.30
2022-09-11T04:51:25.676Z,40.90
2022-09-11T04:56:38.325Z,40.15
2022-09-11T04:59:22.316Z,41.42
2022-09-11T05:01:49.660Z,40.83
2022-09-11T05:04:21.736Z,39.90
2022-09-11T05:06:50.703Z,44.60
2022-09-11T05:09:18.055Z,33.92
2022-09-11T05:11:44.596Z,41.03
2022-09-11T05:14:11.648Z,38.58
2022-09-11T05:16:38.934Z,42.72
2022-09-11T05:19:06.271Z,41.72
2022-09-11T05:21:33.385Z,38.22
2022-09-11T05:24:01.217Z,40.20
2022-09-11T05:26:30.257Z,44.42
2022-09-11T05:28:58.941Z,37.65
2022-09-11T05:31:25.977Z,42.80
2022-09-11T05:33:53.867Z,43.90
2022-09-11T05:36:20.645Z,40.53
2022-09-11T05:38:47.401Z,43.90
2022-09-11T05:41:15.235Z,47.42
2022-09-11T05:43:43.122Z,45.15
2022-09-11T05:46:14.981Z,44.33
2022-09-11T05:51:21.490Z,42.72
2022-09-11T05:53:51.947Z,43.10
2022-09-11T05:56:20.666Z,38.67
2022-09-11T05:58:56.694Z,44.40
2022-09-11T06:01:26.531Z,45.03
2022-09-11T06:03:53.858Z,45.13
2022-09-11T06:06:21.927Z,52.00
2022-09-11T06:08:49.989Z,43.92
2022-09-11T06:11:18.234Z,45.85
2022-09-11T06:13:50.748Z,52.40
2022-09-11T06:16:29.931Z,47.38
2022-09-11T06:19:02.107Z,52.90
2022-09-11T06:21:30.094Z,48.53
2022-09-11T06:23:58.969Z,49.72
2022-09-11T06:26:26.731Z,41.88
2022-09-11T06:28:54.494Z,55.88
2022-09-11T06:31:22.716Z,51.92
2022-09-11T06:33:59.496Z,49.88
2022-09-11T06:36:30.867Z,51.83
2022-09-11T06:39:02.051Z,51.53
2022-09-11T06:41:28.609Z,49.45
2022-09-11T06:43:59.541Z,48.40
2022-09-11T06:49:18.301Z,45.55
2022-09-11T06:51:46.443Z,46.65
2022-09-11T06:54:12.821Z,38.13
2022-09-11T06:56:39.525Z,35.65
2022-09-11T07:01:46.396Z,35.40
2022-09-11T07:04:12.817Z,29.30
2022-09-11T07:09:20.138Z,28.88
2022-09-11T07:17:14.079Z,26.95
2022-09-11T07:22:31.675Z,21.88
2022-09-11T07:24:58.597Z,28.95
2022-09-11T07:27:24.938Z,20.95
2022-09-11T07:32:41.556Z,23.60
2022-09-11T07:35:08.102Z,20.25
2022-09-11T07:37:34.527Z,20.17
2022-09-11T07:40:01.355Z,18.60
2022-09-11T07:42:36.716Z,16.35
2022-09-11T07:45:07.607Z,17.63
2022-09-11T07:47:43.444Z,20.20
2022-09-11T07:50:11.174Z,16.05
2022-09-11T07:52:45.480Z,14.63
2022-09-11T07:55:11.838Z,10.20
2022-09-11T07:57:38.419Z,15.30
2022-09-11T08:00:05.171Z,10.07
2022-09-11T08:02:31.667Z,16.55
2022-09-11T08:07:38.652Z,8.38
2022-09-11T08:10:26.274Z,9.90
2022-09-11T08:12:53.959Z,8.70
2022-09-11T08:23:26.877Z,5.88
2022-09-11T08:25:54.462Z,6.68
2022-09-11T08:28:20.929Z,4.95
2022-09-11T08:30:47.396Z,4.00
2022-09-11T08:33:14.100Z,6.20
2022-09-11T08:38:32.058Z,4.70
2022-09-11T08:40:59.244Z,5.35
2022-09-11T08:46:14.206Z,5.90
2022-09-11T08:49:00.301Z,5.20
2022-09-11T08:51:27.173Z,5.95
2022-09-11T08:53:54.761Z,5.40
2022-09-11T08:56:23.597Z,7.78
2022-09-11T08:59:02.524Z,5.70
2022-09-11T09:02:07.772Z,3.38
2022-09-11T09:05:00.392Z,5.10
2022-09-11T09:08:08.480Z,6.30
2022-09-11T09:13:46.883Z,5.35
2022-09-11T09:16:25.469Z,3.85
2022-09-11T09:25:00.247Z,4.20
2022-09-11T09:27:38.637Z,5.78
2022-09-11T09:33:15.051Z,3.40
2022-09-11T09:35:44.509Z,3.13
2022-09-11T09:38:18.585Z,5.97
2022-09-11T09:41:26.547Z,6.28
2022-09-11T09:44:04.767Z,3.13
2022-09-11T09:49:38.090Z,4.80
2022-09-11T09:55:11.705Z,7.82
2022-09-11T09:57:41.841Z,10.02
2022-09-11T10:02:57.233Z,3.97
2022-09-11T10:05:50.121Z,3.42
2022-09-11T10:11:28.219Z,3.55
2022-09-11T10:16:37.362Z,4.20
2022-09-11T10:19:04.940Z,4.30
2022-09-11T10:24:23.372Z,5.75
2022-09-11T10:26:59.715Z,5.40
2022-09-11T10:29:33.472Z,5.68
2022-09-11T10:32:12.240Z,6.68
2022-09-11T10:34:40.577Z,5.13
2022-09-11T10:37:16.238Z,4.18
2022-09-11T10:39:44.451Z,7.10
2022-09-11T10:42:17.669Z,7.93
2022-09-11T10:44:45.183Z,5.68
2022-09-11T10:47:23.332Z,4.93
2022-09-11T10:49:49.871Z,7.55
2022-09-11T10:55:03.282Z,5.25
2022-09-11T10:57:41.908Z,5.15
2022-09-11T11:00:08.908Z,4.68
2022-09-11T11:05:44.365Z,4.30
2022-09-11T11:14:05.880Z,3.88
2022-09-11T11:16:51.004Z,4.22
2022-09-11T11:19:56.766Z,3.88
2022-09-11T11:28:12.852Z,2.90
2022-09-11T11:39:58.023Z,5.00
2022-09-11T11:42:35.272Z,8.27
2022-09-11T11:50:40.527Z,5.38
2022-09-11T11:59:12.698Z,5.38
2022-09-11T12:04:43.132Z,4.88
2022-09-11T12:10:05.685Z,6.78
2022-09-11T12:12:34.822Z,4.07
2022-09-11T12:15:07.803Z,5.97
2022-09-11T12:20:34.765Z,5.07
2022-09-11T12:25:42.156Z,3.80
2022-09-11T12:31:11.948Z,5.47
2022-09-11T12:33:41.463Z,4.15
2022-09-11T12:36:10.659Z,3.85
2022-09-11T12:49:38.351Z,5.35
2022-09-11T12:52:05.356Z,3.17
2022-09-11T12:54:42.451Z,5.90
2022-09-11T12:57:19.245Z,4.47
2022-09-11T13:02:43.910Z,3.75
2022-09-11T13:05:24.207Z,5.72
2022-09-11T13:07:56.002Z,6.28
2022-09-11T13:10:36.592Z,5.82
2022-09-11T13:13:05.811Z,5.57
2022-09-11T13:15:48.576Z,5.32
2022-09-11T13:18:32.444Z,4.05
2022-09-11T13:21:00.629Z,5.38
2022-09-11T13:23:28.427Z,3.50
2022-09-11T13:25:58.235Z,8.18
2022-09-11T13:28:27.379Z,5.22
2022-09-11T13:33:49.256Z,5.80
2022-09-11T13:36:16.746Z,4.70
2022-09-11T13:41:37.479Z,5.45
2022-09-11T13:44:09.915Z,3.83
2022-09-11T13:46:50.060Z,6.85
2022-09-11T13:49:36.243Z,3.55
2022-09-11T13:57:31.922Z,2.97
2022-09-11T14:00:08.146Z,2.85
2022-09-11T14:08:24.768Z,5.47
2022-09-11T14:10:54.089Z,2.92
2022-09-11T14:13:23.135Z,4.00
2022-09-11T14:16:17.980Z,5.25
2022-09-11T14:18:55.567Z,4.63
2022-09-11T14:21:24.764Z,4.65
2022-09-11T14:23:56.447Z,4.15
2022-09-11T14:26:24.973Z,7.20
2022-09-11T14:28:59.645Z,5.65
2022-09-11T14:31:40.416Z,4.72
2022-09-11T14:34:20.727Z,5.97
2022-09-11T14:36:50.631Z,4.63
2022-09-11T14:39:34.706Z,4.40
2022-09-11T14:42:01.529Z,4.35
2022-09-11T14:44:28.663Z,5.95
2022-09-11T14:46:56.174Z,5.82
2022-09-11T14:49:22.683Z,7.55
2022-09-11T14:51:54.453Z,5.85
2022-09-11T14:54:21.955Z,8.15
2022-09-11T14:56:49.336Z,6.05
2022-09-11T15:01:59.684Z,6.43
2022-09-11T15:04:27.362Z,6.38
2022-09-11T15:07:03.212Z,5.20
2022-09-11T15:12:12.395Z,6.05
2022-09-11T15:14:56.213Z,5.22
2022-09-11T15:17:27.093Z,5.50
2022-09-11T15:19:53.737Z,9.57
2022-09-11T15:22:29.483Z,7.47
2022-09-11T15:25:00.509Z,8.65
2022-09-11T15:27:36.525Z,6.38
2022-09-11T15:30:11.406Z,8.25
2022-09-11T15:35:18.980Z,5.32
2022-09-11T15:37:46.784Z,6.85
2022-09-11T15:40:14.021Z,5.05
2022-09-11T15:42:40.602Z,6.68
2022-09-11T15:45:17.455Z,4.50
2022-09-11T15:47:53.406Z,5.68
2022-09-11T15:50:24.588Z,8.52
2022-09-11T15:52:51.063Z,7.55
2022-09-11T15:55:17.613Z,5.43
2022-09-11T15:57:44.177Z,6.53
2022-09-11T16:00:11.986Z,4.05
2022-09-11T16:05:19.361Z,5.80
2022-09-11T16:07:56.629Z,3.58
2022-09-11T16:10:31.208Z,4.00
2022-09-11T16:12:58.967Z,5.13
2022-09-11T16:15:25.768Z,3.75
2022-09-11T16:17:52.377Z,4.47
2022-09-11T16:20:22.807Z,4.15
2022-09-11T16:25:34.943Z,6.63
2022-09-11T16:28:01.632Z,4.30
2022-09-11T16:33:12.877Z,4.60
2022-09-11T16:35:39.583Z,5.00
2022-09-11T16:38:17.514Z,5.75
2022-09-11T16:43:24.829Z,4.95
2022-09-11T16:45:53.596Z,8.10
2022-09-11T16:51:00.804Z,12.02
2022-09-11T16:53:33.108Z,3.60
2022-09-11T16:56:01.362Z,5.43
2022-09-11T16:58:28.971Z,5.90
2022-09-11T17:01:03.566Z,6.82
2022-09-11T17:03:32.248Z,5.25
2022-09-11T17:08:41.552Z,4.43
2022-09-11T17:11:10.948Z,5.70
2022-09-11T17:13:47.858Z,5.22
2022-09-11T17:16:17.480Z,4.65
2022-09-11T17:21:38.091Z,3.38
2022-09-11T17:24:09.997Z,5.63
2022-09-11T17:26:44.496Z,5.10
2022-09-11T17:34:32.589Z,3.70
2022-09-11T17:37:00.034Z,3.40
2022-09-11T17:39:34.459Z,6.40
2022-09-11T17:42:01.943Z,4.95
2022-09-11T17:47:16.784Z,6.43
2022-09-11T17:49:43.305Z,3.90
2022-09-11T17:52:09.927Z,14.63
2022-09-11T17:54:36.452Z,5.53
2022-09-11T17:57:03.248Z,4.60
2022-09-11T17:59:37.908Z,4.57
2022-09-11T18:02:04.693Z,4.53
2022-09-11T18:04:31.415Z,5.75
2022-09-11T18:09:38.328Z,5.95
2022-09-11T18:12:04.981Z,3.58
2022-09-11T18:14:32.234Z,6.05
2022-09-11T18:19:39.168Z,7.25
2022-09-11T18:22:10.045Z,5.88
2022-09-11T18:24:40.606Z,4.03
2022-09-11T18:27:14.997Z,3.90
2022-09-11T18:29:50.269Z,4.65
2022-09-11T18:32:16.926Z,3.58
2022-09-11T18:34:51.281Z,4.30
2022-09-11T18:37:17.846Z,6.93
2022-09-11T18:39:46.890Z,4.18
2022-09-11T18:42:17.232Z,4.57
2022-09-11T18:44:44.114Z,6.53
2022-09-11T18:47:10.594Z,5.13
2022-09-11T18:49:37.121Z,6.80
2022-09-11T18:52:03.718Z,7.65
2022-09-11T18:57:11.734Z,6.55
2022-09-11T19:02:19.570Z,5.63
2022-09-11T19:04:46.131Z,5.38
2022-09-11T19:09:54.402Z,7.38
2022-09-11T19:12:21.176Z,9.80
2022-09-11T19:14:48.509Z,9.05
2022-09-11T19:17:15.099Z,6.90
2022-09-11T19:19:41.791Z,5.68
2022-09-11T19:22:08.318Z,8.73
2022-09-11T19:24:35.574Z,8.23
2022-09-11T19:27:02.130Z,6.85
2022-09-11T19:34:50.196Z,10.30
2022-09-11T19:40:01.348Z,7.47
2022-09-11T19:42:29.167Z,8.68
2022-09-11T19:44:56.380Z,8.13
2022-09-11T19:47:29.435Z,7.20
2022-09-11T19:49:56.063Z,7.60
2022-09-11T19:52:22.699Z,7.05
2022-09-11T19:57:29.559Z,6.88
2022-09-11T19:59:56.010Z,6.50
2022-09-11T20:02:22.915Z,7.88
2022-09-11T20:04:49.390Z,7.47
2022-09-11T20:07:15.852Z,8.95
2022-09-11T20:09:42.820Z,7.65
2022-09-11T20:17:31.143Z,10.82
2022-09-11T20:20:00.479Z,8.00
2022-09-11T20:25:12.528Z,8.48
2022-09-11T20:27:39.133Z,13.93
2022-09-11T20:30:06.027Z,14.38
2022-09-11T20:32:32.592Z,10.30
2022-09-11T20:35:00.474Z,11.82
2022-09-11T20:37:27.134Z,10.75
2022-09-11T20:39:57.158Z,10.57
2022-09-11T20:42:23.655Z,10.00
2022-09-11T20:44:50.179Z,12.98
2022-09-11T20:47:16.729Z,10.65
2022-09-11T20:49:43.196Z,10.68
2022-09-11T20:52:11.013Z,13.70
2022-09-11T20:54:37.570Z,11.77
2022-09-11T20:57:04.648Z,8.98
2022-09-11T20:59:34.548Z,10.55
2022-09-11T21:02:01.630Z,11.98
2022-09-11T21:04:28.134Z,9.40
2022-09-11T21:09:35.474Z,12.95
2022-09-11T21:12:05.769Z,12.73
2022-09-11T21:14:32.272Z,11.98
2022-09-11T21:16:58.739Z,10.07
2022-09-11T21:19:25.371Z,10.68
2022-09-11T21:21:52.117Z,10.32
2022-09-11T21:24:18.746Z,10.15
2022-09-11T21:26:45.331Z,9.57
2022-09-11T21:29:13.296Z,10.48
2022-09-11T21:31:40.021Z,10.88
2022-09-11T21:34:06.523Z,15.82
2022-09-11T21:36:33.564Z,10.07
2022-09-11T21:39:00.071Z,11.15
2022-09-11T21:41:26.603Z,13.68
2022-09-11T21:43:53.063Z,12.27
2022-09-11T21:46:20.591Z,15.32
2022-09-11T21:48:47.154Z,17.73
2022-09-11T21:51:18.644Z,16.27
2022-09-11T21:53:46.738Z,17.73
2022-09-11T21:56:19.300Z,17.20
2022-09-11T21:58:46.832Z,10.82
2022-09-11T22:01:14.519Z,12.98
2022-09-11T22:03:41.051Z,15.43
2022-09-11T22:06:08.364Z,14.02
2022-09-11T22:08:35.424Z,14.70
2022-09-11T22:11:03.168Z,11.55
2022-09-11T22:13:29.980Z,14.75
2022-09-11T22:18:38.442Z,15.27
2022-09-11T22:21:05.620Z,15.75
2022-09-11T22:23:33.261Z,17.42
2022-09-11T22:26:21.494Z,14.05
2022-09-11T22:28:49.097Z,21.98
2022-09-11T22:31:26.693Z,14.05
2022-09-11T22:33:53.870Z,13.68
2022-09-11T22:36:23.726Z,14.40
2022-09-11T22:38:50.938Z,14.50
2022-09-11T22:43:59.344Z,16.58
2022-09-11T22:46:38.790Z,15.75
2022-09-11T22:49:05.821Z,14.27
2022-09-11T22:51:34.010Z,13.82
2022-09-11T22:56:47.677Z,15.73
2022-09-11T22:59:14.168Z,15.75
2022-09-11T23:01:40.715Z,14.98
2022-09-11T23:04:07.374Z,12.90
2022-09-11T23:09:39.523Z,12.90
2022-09-11T23:14:47.091Z,14.18
2022-09-11T23:17:13.693Z,14.18
2022-09-11T23:19:40.207Z,14.88
2022-09-11T23:22:06.784Z,13.38
2022-09-11T23:24:34.062Z,14.63
2022-09-11T23:27:00.526Z,14.23
2022-09-11T23:32:10.034Z,14.77
2022-09-11T23:34:36.556Z,14.57
2022-09-11T23:37:03.382Z,14.25
2022-09-11T23:42:10.222Z,14.95
2022-09-11T23:44:36.704Z,13.85
2022-09-11T23:47:04.166Z,13.00
2022-09-11T23:49:35.530Z,16.67
2022-09-11T23:52:03.670Z,14.25
2022-09-11T23:54:30.124Z,14.45
2022-09-11T23:56:57.449Z,15.75
2022-09-11T23:59:24.135Z,15.10
